sensor_id;sensor_type;location;lat;lon;timestamp;P1;durP1;ratioP1;P2;durP2;ratioP2
12966;SDS011;6548;49.996;8.238;2022-12-28T00:00:51;9.43;;;5.13;;
12966;SDS011;6548;49.996;8.238;2022-12-28T00:03:16;10.82;;;4.70;;
12966;SDS011;6548;49.996;8.238;2022-12-28T00:05:42;11.27;;;4.35;;
12966;SDS011;6548;49.996;8.238;2022-12-28T00:08:07;8.52;;;5.05;;
12966;SDS011;6548;49.996;8.238;2022-12-28T00:10:33;12.05;;;4.88;;
12966;SDS011;6548;49.996;8.238;2022-12-28T00:12:58;10.27;;;4.55;;
12966;SDS011;6548;49.996;8.238;2022-12-28T00:15:24;10.80;;;5.57;;
12966;SDS011;6548;49.996;8.238;2022-12-28T00:17:50;13.13;;;5.07;;
12966;SDS011;6548;49.996;8.238;2022-12-28T00:20:15;8.65;;;4.18;;
12966;SDS011;6548;49.996;8.238;2022-12-28T00:22:41;8.13;;;4.13;;
12966;SDS011;6548;49.996;8.238;2022-12-28T00:25:06;9.32;;;4.35;;
12966;SDS011;6548;49.996;8.238;2022-12-28T00:27:33;8.32;;;4.38;;
12966;SDS011;6548;49.996;8.238;2022-12-28T00:29:58;6.85;;;3.90;;
12966;SDS011;6548;49.996;8.238;2022-12-28T00:32:24;8.02;;;4.00;;
12966;SDS011;6548;49.996;8.238;2022-12-28T00:34:49;9.77;;;4.88;;
12966;SDS011;6548;49.996;8.238;2022-12-28T00:37:15;6.57;;;4.30;;
12966;SDS011;6548;49.996;8.238;2022-12-28T00:39:41;11.38;;;3.80;;
12966;SDS011;6548;49.996;8.238;2022-12-28T00:42:06;5.95;;;3.45;;
12966;SDS011;6548;49.996;8.238;2022-12-28T00:44:32;7.95;;;4.60;;
12966;SDS011;6548;49.996;8.238;2022-12-28T00:46:58;7.32;;;4.00;;
12966;SDS011;6548;49.996;8.238;2022-12-28T00:49:23;9.30;;;3.97;;
12966;SDS011;6548;49.996;8.238;2022-12-28T00:51:49;9.65;;;4.05;;
12966;SDS011;6548;49.996;8.238;2022-12-28T00:54:14;6.05;;;3.25;;
12966;SDS011;6548;49.996;8.238;2022-12-28T00:56:40;7.72;;;3.88;;
12966;SDS011;6548;49.996;8.238;2022-12-28T00:59:07;5.97;;;3.72;;
12966;SDS011;6548;49.996;8.238;2022-12-28T01:01:33;8.63;;;3.80;;
12966;SDS011;6548;49.996;8.238;2022-12-28T01:03:59;11.02;;;4.82;;
12966;SDS011;6548;49.996;8.238;2022-12-28T01:06:25;5.53;;;3.75;;
12966;SDS011;6548;49.996;8.238;2022-12-28T01:08:51;7.65;;;5.22;;
12966;SDS011;6548;49.996;8.238;2022-12-28T01:11:19;7.22;;;3.47;;
12966;SDS011;6548;49.996;8.238;2022-12-28T01:13:46;6.05;;;4.35;;
12966;SDS011;6548;49.996;8.238;2022-12-28T01:16:13;6.68;;;4.43;;
12966;SDS011;6548;49.996;8.238;2022-12-28T01:18:41;6.72;;;4.07;;
12966;SDS011;6548;49.996;8.238;2022-12-28T01:21:08;7.22;;;3.90;;
12966;SDS011;6548;49.996;8.238;2022-12-28T01:23:45;8.20;;;5.43;;
12966;SDS011;6548;49.996;8.238;2022-12-28T01:26:11;8.90;;;3.67;;
12966;SDS011;6548;49.996;8.238;2022-12-28T01:28:37;9.07;;;3.80;;
12966;SDS011;6548;49.996;8.238;2022-12-28T01:31:03;8.23;;;3.85;;
12966;SDS011;6548;49.996;8.238;2022-12-28T01:33:34;7.65;;;4.70;;
12966;SDS011;6548;49.996;8.238;2022-12-28T01:36:16;6.70;;;3.88;;
12966;SDS011;6548;49.996;8.238;2022-12-28T01:38:46;6.90;;;4.45;;
12966;SDS011;6548;49.996;8.238;2022-12-28T01:41:14;7.13;;;3.97;;
12966;SDS011;6548;49.996;8.238;2022-12-28T01:46:13;6.80;;;4.25;;
12966;SDS011;6548;49.996;8.238;2022-12-28T01:48:56;10.13;;;4.93;;
12966;SDS011;6548;49.996;8.238;2022-12-28T01:51:32;7.18;;;4.68;;
12966;SDS011;6548;49.996;8.238;2022-12-28T01:54:11;9.52;;;5.15;;
12966;SDS011;6548;49.996;8.238;2022-12-28T01:56:38;9.70;;;4.22;;
12966;SDS011;6548;49.996;8.238;2022-12-28T01:59:04;7.82;;;4.57;;
12966;SDS011;6548;49.996;8.238;2022-12-28T02:01:30;7.40;;;4.80;;
12966;SDS011;6548;49.996;8.238;2022-12-28T02:03:56;9.38;;;4.70;;
12966;SDS011;6548;49.996;8.238;2022-12-28T02:06:21;12.98;;;5.55;;
12966;SDS011;6548;49.996;8.238;2022-12-28T02:09:05;8.02;;;4.78;;
12966;SDS011;6548;49.996;8.238;2022-12-28T02:11:35;8.80;;;5.43;;
12966;SDS011;6548;49.996;8.238;2022-12-28T02:14:02;7.18;;;4.85;;
12966;SDS011;6548;49.996;8.238;2022-12-28T02:19:47;11.77;;;5.75;;
12966;SDS011;6548;49.996;8.238;2022-12-28T02:22:28;9.45;;;5.47;;
12966;SDS011;6548;49.996;8.238;2022-12-28T02:34:20;10.48;;;5.60;;
12966;SDS011;6548;49.996;8.238;2022-12-28T02:37:12;12.60;;;6.82;;
12966;SDS011;6548;49.996;8.238;2022-12-28T02:39:58;9.50;;;6.07;;
12966;SDS011;6548;49.996;8.238;2022-12-28T02:42:28;7.65;;;5.25;;
12966;SDS011;6548;49.996;8.238;2022-12-28T02:44:55;10.85;;;5.40;;
12966;SDS011;6548;49.996;8.238;2022-12-28T02:47:40;10.65;;;5.15;;
12966;SDS011;6548;49.996;8.238;2022-12-28T02:50:30;9.60;;;6.20;;
12966;SDS011;6548;49.996;8.238;2022-12-28T02:56:51;12.93;;;7.18;;
12966;SDS011;6548;49.996;8.238;2022-12-28T03:01:50;10.55;;;6.32;;
12966;SDS011;6548;49.996;8.238;2022-12-28T03:07:41;10.32;;;6.75;;
12966;SDS011;6548;49.996;8.238;2022-12-28T03:10:55;11.50;;;6.15;;
12966;SDS011;6548;49.996;8.238;2022-12-28T03:13:32;11.52;;;5.85;;
12966;SDS011;6548;49.996;8.238;2022-12-28T03:16:15;13.27;;;7.30;;
12966;SDS011;6548;49.996;8.238;2022-12-28T03:18:45;10.27;;;6.00;;
12966;SDS011;6548;49.996;8.238;2022-12-28T03:21:45;11.80;;;6.72;;
12966;SDS011;6548;49.996;8.238;2022-12-28T03:24:30;13.23;;;6.60;;
12966;SDS011;6548;49.996;8.238;2022-12-28T03:27:18;10.50;;;5.90;;
12966;SDS011;6548;49.996;8.238;2022-12-28T03:30:07;14.02;;;7.00;;
12966;SDS011;6548;49.996;8.238;2022-12-28T04:16:47;13.30;;;5.60;;
12966;SDS011;6548;49.996;8.238;2022-12-28T04:19:13;17.75;;;7.25;;
12966;SDS011;6548;49.996;8.238;2022-12-28T04:21:39;10.88;;;6.47;;
12966;SDS011;6548;49.996;8.238;2022-12-28T04:24:04;10.73;;;6.20;;
12966;SDS011;6548;49.996;8.238;2022-12-28T04:26:30;10.05;;;5.45;;
12966;SDS011;6548;49.996;8.238;2022-12-28T04:28:55;14.73;;;6.82;;
12966;SDS011;6548;49.996;8.238;2022-12-28T04:31:26;8.15;;;6.15;;
12966;SDS011;6548;49.996;8.238;2022-12-28T04:33:55;10.02;;;5.70;;
12966;SDS011;6548;49.996;8.238;2022-12-28T04:36:21;10.35;;;5.70;;
12966;SDS011;6548;49.996;8.238;2022-12-28T04:38:47;12.60;;;6.28;;
12966;SDS011;6548;49.996;8.238;2022-12-28T04:41:12;9.57;;;6.25;;
12966;SDS011;6548;49.996;8.238;2022-12-28T04:43:38;7.47;;;5.40;;
12966;SDS011;6548;49.996;8.238;2022-12-28T04:46:05;10.60;;;5.90;;
12966;SDS011;6548;49.996;8.238;2022-12-28T04:48:34;9.35;;;5.32;;
12966;SDS011;6548;49.996;8.238;2022-12-28T04:51:04;11.43;;;6.05;;
12966;SDS011;6548;49.996;8.238;2022-12-28T04:53:34;10.55;;;5.82;;
12966;SDS011;6548;49.996;8.238;2022-12-28T04:56:04;10.00;;;6.30;;
12966;SDS011;6548;49.996;8.238;2022-12-28T04:58:34;9.00;;;6.68;;
12966;SDS011;6548;49.996;8.238;2022-12-28T05:01:05;11.57;;;6.53;;
12966;SDS011;6548;49.996;8.238;2022-12-28T05:03:34;13.63;;;6.63;;
12966;SDS011;6548;49.996;8.238;2022-12-28T05:06:04;11.35;;;6.35;;
12966;SDS011;6548;49.996;8.238;2022-12-28T05:08:32;8.15;;;5.93;;
12966;SDS011;6548;49.996;8.238;2022-12-28T05:11:00;8.05;;;5.78;;
12966;SDS011;6548;49.996;8.238;2022-12-28T05:13:30;12.63;;;6.97;;
12966;SDS011;6548;49.996;8.238;2022-12-28T05:16:06;9.27;;;5.75;;
12966;SDS011;6548;49.996;8.238;2022-12-28T05:18:34;7.43;;;5.25;;
12966;SDS011;6548;49.996;8.238;2022-12-28T05:21:00;8.93;;;5.32;;
12966;SDS011;6548;49.996;8.238;2022-12-28T05:23:28;12.55;;;5.90;;
12966;SDS011;6548;49.996;8.238;2022-12-28T05:25:54;9.05;;;5.85;;
12966;SDS011;6548;49.996;8.238;2022-12-28T05:28:20;9.50;;;6.00;;
12966;SDS011;6548;49.996;8.238;2022-12-28T05:30:45;13.23;;;7.05;;
12966;SDS011;6548;49.996;8.238;2022-12-28T05:33:11;8.95;;;6.63;;
12966;SDS011;6548;49.996;8.238;2022-12-28T05:35:36;11.25;;;6.45;;
12966;SDS011;6548;49.996;8.238;2022-12-28T05:38:02;12.88;;;7.15;;
12966;SDS011;6548;49.996;8.238;2022-12-28T05:40:27;9.65;;;6.28;;
12966;SDS011;6548;49.996;8.238;2022-12-28T05:42:53;12.18;;;6.93;;
12966;SDS011;6548;49.996;8.238;2022-12-28T05:45:19;11.63;;;7.38;;
12966;SDS011;6548;49.996;8.238;2022-12-28T05:47:44;13.45;;;6.72;;
12966;SDS011;6548;49.996;8.238;2022-12-28T05:50:10;12.48;;;7.20;;
12966;SDS011;6548;49.996;8.238;2022-12-28T05:52:36;11.70;;;7.35;;
12966;SDS011;6548;49.996;8.238;2022-12-28T05:55:01;11.00;;;6.88;;
12966;SDS011;6548;49.996;8.238;2022-12-28T05:57:27;12.80;;;7.07;;
12966;SDS011;6548;49.996;8.238;2022-12-28T05:59:52;9.57;;;6.82;;
12966;SDS011;6548;49.996;8.238;2022-12-28T06:02:18;11.73;;;6.43;;
12966;SDS011;6548;49.996;8.238;2022-12-28T06:04:44;7.20;;;5.85;;
12966;SDS011;6548;49.996;8.238;2022-12-28T06:07:09;10.90;;;7.00;;
12966;SDS011;6548;49.996;8.238;2022-12-28T06:09:35;9.10;;;6.30;;
12966;SDS011;6548;49.996;8.238;2022-12-28T06:12:00;7.90;;;5.55;;
12966;SDS011;6548;49.996;8.238;2022-12-28T06:14:26;12.50;;;6.60;;
12966;SDS011;6548;49.996;8.238;2022-12-28T06:16:51;10.82;;;6.18;;
12966;SDS011;6548;49.996;8.238;2022-12-28T06:19:17;9.43;;;5.80;;
12966;SDS011;6548;49.996;8.238;2022-12-28T06:21:42;12.98;;;7.03;;
12966;SDS011;6548;49.996;8.238;2022-12-28T06:24:08;7.70;;;5.18;;
12966;SDS011;6548;49.996;8.238;2022-12-28T06:26:35;11.10;;;6.55;;
12966;SDS011;6548;49.996;8.238;2022-12-28T06:29:02;8.15;;;6.50;;
12966;SDS011;6548;49.996;8.238;2022-12-28T06:31:33;11.10;;;6.78;;
12966;SDS011;6548;49.996;8.238;2022-12-28T06:34:00;12.50;;;6.68;;
12966;SDS011;6548;49.996;8.238;2022-12-28T06:36:28;10.98;;;6.22;;
12966;SDS011;6548;49.996;8.238;2022-12-28T06:38:55;8.38;;;6.30;;
12966;SDS011;6548;49.996;8.238;2022-12-28T06:41:23;9.45;;;6.00;;
12966;SDS011;6548;49.996;8.238;2022-12-28T06:43:49;10.82;;;6.30;;
12966;SDS011;6548;49.996;8.238;2022-12-28T06:46:17;13.88;;;7.35;;
12966;SDS011;6548;49.996;8.238;2022-12-28T06:48:44;10.32;;;7.20;;
12966;SDS011;6548;49.996;8.238;2022-12-28T06:53:45;11.10;;;5.93;;
12966;SDS011;6548;49.996;8.238;2022-12-28T06:56:16;11.35;;;5.97;;
12966;SDS011;6548;49.996;8.238;2022-12-28T06:58:44;10.52;;;7.15;;
12966;SDS011;6548;49.996;8.238;2022-12-28T07:01:12;10.93;;;6.80;;
12966;SDS011;6548;49.996;8.238;2022-12-28T07:03:40;10.80;;;6.05;;
12966;SDS011;6548;49.996;8.238;2022-12-28T07:06:06;10.48;;;6.07;;
12966;SDS011;6548;49.996;8.238;2022-12-28T07:08:32;7.45;;;4.57;;
12966;SDS011;6548;49.996;8.238;2022-12-28T07:11:08;7.30;;;2.95;;
12966;SDS011;6548;49.996;8.238;2022-12-28T07:13:39;7.18;;;3.25;;
12966;SDS011;6548;49.996;8.238;2022-12-28T07:16:06;4.78;;;2.38;;
12966;SDS011;6548;49.996;8.238;2022-12-28T07:18:37;5.13;;;2.95;;
12966;SDS011;6548;49.996;8.238;2022-12-28T07:21:04;4.22;;;2.00;;
12966;SDS011;6548;49.996;8.238;2022-12-28T07:26:07;5.68;;;2.88;;
12966;SDS011;6548;49.996;8.238;2022-12-28T07:28:37;3.85;;;2.08;;
12966;SDS011;6548;49.996;8.238;2022-12-28T07:31:08;4.78;;;2.40;;
12966;SDS011;6548;49.996;8.238;2022-12-28T07:33:36;2.93;;;2.20;;
12966;SDS011;6548;49.996;8.238;2022-12-28T07:36:02;6.30;;;2.67;;
12966;SDS011;6548;49.996;8.238;2022-12-28T07:38:29;3.38;;;2.60;;
12966;SDS011;6548;49.996;8.238;2022-12-28T07:41:01;3.53;;;2.35;;
12966;SDS011;6548;49.996;8.238;2022-12-28T07:43:28;3.80;;;2.17;;
12966;SDS011;6548;49.996;8.238;2022-12-28T07:48:54;5.40;;;2.10;;
12966;SDS011;6548;49.996;8.238;2022-12-28T07:51:22;5.85;;;2.72;;
12966;SDS011;6548;49.996;8.238;2022-12-28T07:53:55;3.80;;;2.30;;
12966;SDS011;6548;49.996;8.238;2022-12-28T07:56:22;3.55;;;2.30;;
12966;SDS011;6548;49.996;8.238;2022-12-28T07:58:49;3.00;;;2.47;;
12966;SDS011;6548;49.996;8.238;2022-12-28T08:01:23;3.00;;;1.73;;
12966;SDS011;6548;49.996;8.238;2022-12-28T08:03:54;3.20;;;2.83;;
12966;SDS011;6548;49.996;8.238;2022-12-28T08:06:21;2.65;;;1.85;;
12966;SDS011;6548;49.996;8.238;2022-12-28T08:08:48;3.83;;;2.10;;
12966;SDS011;6548;49.996;8.238;2022-12-28T08:11:16;3.75;;;1.90;;
12966;SDS011;6548;49.996;8.238;2022-12-28T08:13:44;2.67;;;1.73;;
12966;SDS011;6548;49.996;8.238;2022-12-28T08:16:11;4.03;;;2.17;;
12966;SDS011;6548;49.996;8.238;2022-12-28T08:18:39;3.03;;;1.80;;
12966;SDS011;6548;49.996;8.238;2022-12-28T08:21:26;3.65;;;2.17;;
12966;SDS011;6548;49.996;8.238;2022-12-28T08:23:52;5.40;;;2.53;;
12966;SDS011;6548;49.996;8.238;2022-12-28T08:26:22;3.38;;;1.95;;
12966;SDS011;6548;49.996;8.238;2022-12-28T08:28:50;5.13;;;2.30;;
12966;SDS011;6548;49.996;8.238;2022-12-28T08:31:18;7.85;;;2.65;;
12966;SDS011;6548;49.996;8.238;2022-12-28T08:33:46;1.55;;;1.00;;
12966;SDS011;6548;49.996;8.238;2022-12-28T08:36:12;2.67;;;1.73;;
12966;SDS011;6548;49.996;8.238;2022-12-28T08:38:38;5.28;;;2.10;;
12966;SDS011;6548;49.996;8.238;2022-12-28T08:41:06;5.95;;;1.70;;
12966;SDS011;6548;49.996;8.238;2022-12-28T08:43:33;1.98;;;1.63;;
12966;SDS011;6548;49.996;8.238;2022-12-28T08:45:59;3.15;;;2.00;;
12966;SDS011;6548;49.996;8.238;2022-12-28T08:48:30;1.63;;;1.08;;
12966;SDS011;6548;49.996;8.238;2022-12-28T08:51:00;4.60;;;1.73;;
12966;SDS011;6548;49.996;8.238;2022-12-28T08:53:27;3.22;;;1.58;;
12966;SDS011;6548;49.996;8.238;2022-12-28T08:55:53;3.63;;;1.42;;
12966;SDS011;6548;49.996;8.238;2022-12-28T08:58:18;2.25;;;1.60;;
12966;SDS011;6548;49.996;8.238;2022-12-28T09:00:45;1.77;;;1.48;;
12966;SDS011;6548;49.996;8.238;2022-12-28T09:03:11;2.97;;;1.80;;
12966;SDS011;6548;49.996;8.238;2022-12-28T09:05:39;3.13;;;2.58;;
12966;SDS011;6548;49.996;8.238;2022-12-28T09:08:05;7.30;;;1.40;;
12966;SDS011;6548;49.996;8.238;2022-12-28T09:10:30;2.47;;;1.73;;
12966;SDS011;6548;49.996;8.238;2022-12-28T09:12:56;5.07;;;1.80;;
12966;SDS011;6548;49.996;8.238;2022-12-28T09:15:22;2.22;;;1.38;;
12966;SDS011;6548;49.996;8.238;2022-12-28T09:17:48;4.43;;;2.15;;
12966;SDS011;6548;49.996;8.238;2022-12-28T09:20:13;2.67;;;1.70;;
12966;SDS011;6548;49.996;8.238;2022-12-28T09:22:39;2.45;;;1.55;;
12966;SDS011;6548;49.996;8.238;2022-12-28T09:25:05;5.57;;;2.10;;
12966;SDS011;6548;49.996;8.238;2022-12-28T09:27:31;3.88;;;2.50;;
12966;SDS011;6548;49.996;8.238;2022-12-28T09:29:56;5.22;;;2.75;;
12966;SDS011;6548;49.996;8.238;2022-12-28T09:32:22;1.92;;;1.75;;
12966;SDS011;6548;49.996;8.238;2022-12-28T09:34:47;3.05;;;1.27;;
12966;SDS011;6548;49.996;8.238;2022-12-28T09:37:13;5.85;;;1.20;;
12966;SDS011;6548;49.996;8.238;2022-12-28T09:39:39;3.67;;;1.73;;
12966;SDS011;6548;49.996;8.238;2022-12-28T09:47:27;1.58;;;1.48;;
12966;SDS011;6548;49.996;8.238;2022-12-28T09:52:30;5.88;;;1.92;;
12966;SDS011;6548;49.996;8.238;2022-12-28T09:55:00;3.45;;;1.52;;
12966;SDS011;6548;49.996;8.238;2022-12-28T09:57:33;5.97;;;1.52;;
12966;SDS011;6548;49.996;8.238;2022-12-28T10:00:01;4.57;;;2.20;;
12966;SDS011;6548;49.996;8.238;2022-12-28T10:02:29;4.97;;;1.65;;
12966;SDS011;6548;49.996;8.238;2022-12-28T10:04:58;2.22;;;1.40;;
12966;SDS011;6548;49.996;8.238;2022-12-28T10:07:24;4.13;;;1.20;;
12966;SDS011;6548;49.996;8.238;2022-12-28T10:09:50;2.67;;;1.80;;
12966;SDS011;6548;49.996;8.238;2022-12-28T10:12:17;2.58;;;1.52;;
12966;SDS011;6548;49.996;8.238;2022-12-28T10:14:45;3.50;;;1.70;;
12966;SDS011;6548;49.996;8.238;2022-12-28T10:17:12;4.28;;;1.75;;
12966;SDS011;6548;49.996;8.238;2022-12-28T10:19:39;3.17;;;1.40;;
12966;SDS011;6548;49.996;8.238;2022-12-28T10:22:10;3.30;;;1.45;;
12966;SDS011;6548;49.996;8.238;2022-12-28T10:24:45;2.53;;;1.30;;
12966;SDS011;6548;49.996;8.238;2022-12-28T10:27:22;3.78;;;1.63;;
12966;SDS011;6548;49.996;8.238;2022-12-28T10:29:52;3.47;;;1.70;;
12966;SDS011;6548;49.996;8.238;2022-12-28T10:33:01;3.63;;;1.30;;
12966;SDS011;6548;49.996;8.238;2022-12-28T10:35:26;4.43;;;1.40;;
12966;SDS011;6548;49.996;8.238;2022-12-28T10:41:06;4.70;;;1.60;;
12966;SDS011;6548;49.996;8.238;2022-12-28T10:43:41;1.30;;;1.05;;
12966;SDS011;6548;49.996;8.238;2022-12-28T10:46:25;5.32;;;1.98;;
12966;SDS011;6548;49.996;8.238;2022-12-28T10:49:25;2.40;;;1.27;;
12966;SDS011;6548;49.996;8.238;2022-12-28T10:52:06;2.95;;;1.60;;
12966;SDS011;6548;49.996;8.238;2022-12-28T10:54:45;2.67;;;1.60;;
12966;SDS011;6548;49.996;8.238;2022-12-28T10:57:18;3.38;;;1.23;;
12966;SDS011;6548;49.996;8.238;2022-12-28T10:59:49;2.70;;;1.73;;
12966;SDS011;6548;49.996;8.238;2022-12-28T11:02:23;6.90;;;2.08;;
12966;SDS011;6548;49.996;8.238;2022-12-28T11:05:03;1.60;;;1.20;;
12966;SDS011;6548;49.996;8.238;2022-12-28T11:07:41;3.88;;;1.17;;
12966;SDS011;6548;49.996;8.238;2022-12-28T11:10:25;2.53;;;1.13;;
12966;SDS011;6548;49.996;8.238;2022-12-28T11:12:53;4.43;;;1.83;;
12966;SDS011;6548;49.996;8.238;2022-12-28T11:15:22;2.15;;;1.88;;
12966;SDS011;6548;49.996;8.238;2022-12-28T11:18:23;5.53;;;2.20;;
12966;SDS011;6548;49.996;8.238;2022-12-28T11:20:46;1.33;;;0.85;;
12966;SDS011;6548;49.996;8.238;2022-12-28T11:23:18;1.50;;;1.35;;
12966;SDS011;6548;49.996;8.238;2022-12-28T11:25:46;2.05;;;1.00;;
12966;SDS011;6548;49.996;8.238;2022-12-28T11:28:14;1.95;;;1.25;;
12966;SDS011;6548;49.996;8.238;2022-12-28T11:30:42;1.95;;;1.30;;
12966;SDS011;6548;49.996;8.238;2022-12-28T11:35:51;2.50;;;1.38;;
12966;SDS011;6548;49.996;8.238;2022-12-28T11:38:35;1.60;;;1.50;;
12966;SDS011;6548;49.996;8.238;2022-12-28T11:41:02;2.95;;;1.50;;
12966;SDS011;6548;49.996;8.238;2022-12-28T11:48:37;3.15;;;2.00;;
12966;SDS011;6548;49.996;8.238;2022-12-28T11:51:03;3.35;;;2.13;;
12966;SDS011;6548;49.996;8.238;2022-12-28T11:56:00;4.90;;;2.25;;
12966;SDS011;6548;49.996;8.238;2022-12-28T12:14:20;2.38;;;1.85;;
12966;SDS011;6548;49.996;8.238;2022-12-28T12:16:56;3.45;;;1.65;;
12966;SDS011;6548;49.996;8.238;2022-12-28T12:19:39;2.35;;;1.83;;
12966;SDS011;6548;49.996;8.238;2022-12-28T12:22:15;1.23;;;1.00;;
12966;SDS011;6548;49.996;8.238;2022-12-28T12:24:49;1.02;;;0.82;;
12966;SDS011;6548;49.996;8.238;2022-12-28T12:27:30;1.50;;;1.20;;
12966;SDS011;6548;49.996;8.238;2022-12-28T12:30:21;1.33;;;1.13;;
12966;SDS011;6548;49.996;8.238;2022-12-28T12:35:33;4.80;;;2.25;;
12966;SDS011;6548;49.996;8.238;2022-12-28T12:38:29;2.80;;;1.80;;
12966;SDS011;6548;49.996;8.238;2022-12-28T12:41:14;6.15;;;4.22;;
12966;SDS011;6548;49.996;8.238;2022-12-28T12:46:58;4.03;;;1.58;;
12966;SDS011;6548;49.996;8.238;2022-12-28T12:49:30;2.90;;;1.40;;
12966;SDS011;6548;49.996;8.238;2022-12-28T12:52:25;1.00;;;0.88;;
12966;SDS011;6548;49.996;8.238;2022-12-28T12:55:18;2.30;;;1.20;;
12966;SDS011;6548;49.996;8.238;2022-12-28T12:57:52;1.35;;;1.15;;
12966;SDS011;6548;49.996;8.238;2022-12-28T13:06:19;2.50;;;1.25;;
12966;SDS011;6548;49.996;8.238;2022-12-28T13:08:49;4.32;;;1.95;;
12966;SDS011;6548;49.996;8.238;2022-12-28T13:11:18;2.83;;;1.10;;
12966;SDS011;6548;49.996;8.238;2022-12-28T13:13:46;2.50;;;1.63;;
12966;SDS011;6548;49.996;8.238;2022-12-28T13:16:18;2.90;;;1.30;;
12966;SDS011;6548;49.996;8.238;2022-12-28T13:21:20;3.65;;;1.50;;
12966;SDS011;6548;49.996;8.238;2022-12-28T13:23:46;2.58;;;1.80;;
12966;SDS011;6548;49.996;8.238;2022-12-28T13:26:13;5.97;;;1.55;;
12966;SDS011;6548;49.996;8.238;2022-12-28T13:28:45;3.60;;;1.65;;
12966;SDS011;6548;49.996;8.238;2022-12-28T13:31:20;1.98;;;1.38;;
12966;SDS011;6548;49.996;8.238;2022-12-28T13:33:54;1.88;;;1.35;;
12966;SDS011;6548;49.996;8.238;2022-12-28T13:36:48;4.85;;;1.30;;
12966;SDS011;6548;49.996;8.238;2022-12-28T13:39:26;3.10;;;1.70;;
12966;SDS011;6548;49.996;8.238;2022-12-28T13:41:56;2.58;;;1.48;;
12966;SDS011;6548;49.996;8.238;2022-12-28T13:44:43;5.82;;;1.40;;
12966;SDS011;6548;49.996;8.238;2022-12-28T13:47:15;1.90;;;1.02;;
12966;SDS011;6548;49.996;8.238;2022-12-28T13:50:01;1.75;;;1.20;;
12966;SDS011;6548;49.996;8.238;2022-12-28T13:55:43;2.95;;;1.30;;
12966;SDS011;6548;49.996;8.238;2022-12-28T13:58:18;1.50;;;1.17;;
12966;SDS011;6548;49.996;8.238;2022-12-28T14:00:55;2.28;;;1.23;;
12966;SDS011;6548;49.996;8.238;2022-12-28T14:03:22;3.25;;;1.70;;
12966;SDS011;6548;49.996;8.238;2022-12-28T14:05:49;1.25;;;1.15;;
12966;SDS011;6548;49.996;8.238;2022-12-28T14:08:23;2.40;;;1.40;;
12966;SDS011;6548;49.996;8.238;2022-12-28T14:10:51;1.88;;;1.40;;
12966;SDS011;6548;49.996;8.238;2022-12-28T14:13:17;5.72;;;1.85;;
12966;SDS011;6548;49.996;8.238;2022-12-28T14:15:44;2.45;;;1.20;;
12966;SDS011;6548;49.996;8.238;2022-12-28T14:18:15;6.38;;;2.40;;
12966;SDS011;6548;49.996;8.238;2022-12-28T14:20:52;2.67;;;1.85;;
12966;SDS011;6548;49.996;8.238;2022-12-28T14:25:52;2.67;;;2.40;;
12966;SDS011;6548;49.996;8.238;2022-12-28T14:28:41;4.18;;;2.00;;
12966;SDS011;6548;49.996;8.238;2022-12-28T14:31:08;3.92;;;2.03;;
12966;SDS011;6548;49.996;8.238;2022-12-28T14:33:37;2.78;;;1.80;;
12966;SDS011;6548;49.996;8.238;2022-12-28T14:36:16;2.67;;;1.90;;
12966;SDS011;6548;49.996;8.238;2022-12-28T14:38:45;2.58;;;1.50;;
12966;SDS011;6548;49.996;8.238;2022-12-28T14:41:17;2.28;;;1.38;;
12966;SDS011;6548;49.996;8.238;2022-12-28T14:46:27;2.40;;;1.02;;
12966;SDS011;6548;49.996;8.238;2022-12-28T14:48:58;3.38;;;1.10;;
12966;SDS011;6548;49.996;8.238;2022-12-28T14:51:45;2.70;;;1.70;;
12966;SDS011;6548;49.996;8.238;2022-12-28T14:57:05;2.55;;;1.50;;
12966;SDS011;6548;49.996;8.238;2022-12-28T14:59:55;2.70;;;1.50;;
12966;SDS011;6548;49.996;8.238;2022-12-28T15:05:03;2.20;;;1.30;;
12966;SDS011;6548;49.996;8.238;2022-12-28T15:07:48;2.50;;;1.35;;
12966;SDS011;6548;49.996;8.238;2022-12-28T15:10:14;3.90;;;1.45;;
12966;SDS011;6548;49.996;8.238;2022-12-28T15:12:39;3.10;;;1.50;;
12966;SDS011;6548;49.996;8.238;2022-12-28T15:15:05;2.30;;;1.40;;
12966;SDS011;6548;49.996;8.238;2022-12-28T15:17:32;4.43;;;1.33;;
12966;SDS011;6548;49.996;8.238;2022-12-28T15:19:58;2.22;;;1.10;;
12966;SDS011;6548;49.996;8.238;2022-12-28T15:22:23;1.55;;;1.10;;
12966;SDS011;6548;49.996;8.238;2022-12-28T15:24:49;2.53;;;1.23;;
12966;SDS011;6548;49.996;8.238;2022-12-28T15:27:14;3.13;;;1.38;;
12966;SDS011;6548;49.996;8.238;2022-12-28T15:29:40;1.58;;;1.10;;
12966;SDS011;6548;49.996;8.238;2022-12-28T15:32:05;2.22;;;1.52;;
12966;SDS011;6548;49.996;8.238;2022-12-28T15:34:31;5.82;;;1.20;;
12966;SDS011;6548;49.996;8.238;2022-12-28T15:36:57;2.97;;;1.30;;
12966;SDS011;6548;49.996;8.238;2022-12-28T15:39:22;3.13;;;1.17;;
12966;SDS011;6548;49.996;8.238;2022-12-28T15:41:49;4.53;;;1.08;;
12966;SDS011;6548;49.996;8.238;2022-12-28T15:44:18;4.30;;;1.10;;
12966;SDS011;6548;49.996;8.238;2022-12-28T15:46:44;3.17;;;1.20;;
12966;SDS011;6548;49.996;8.238;2022-12-28T15:49:11;1.88;;;0.82;;
12966;SDS011;6548;49.996;8.238;2022-12-28T15:51:38;2.88;;;1.40;;
12966;SDS011;6548;49.996;8.238;2022-12-28T15:54:04;2.65;;;1.40;;
12966;SDS011;6548;49.996;8.238;2022-12-28T15:56:35;2.13;;;1.45;;
12966;SDS011;6548;49.996;8.238;2022-12-28T15:59:04;2.10;;;1.25;;
12966;SDS011;6548;49.996;8.238;2022-12-28T16:01:31;4.10;;;1.70;;
12966;SDS011;6548;49.996;8.238;2022-12-28T16:03:58;3.25;;;1.10;;
12966;SDS011;6548;49.996;8.238;2022-12-28T16:06:25;1.88;;;1.23;;
12966;SDS011;6548;49.996;8.238;2022-12-28T16:08:53;2.10;;;1.40;;
12966;SDS011;6548;49.996;8.238;2022-12-28T16:11:19;2.58;;;1.45;;
12966;SDS011;6548;49.996;8.238;2022-12-28T16:13:49;1.63;;;1.42;;
12966;SDS011;6548;49.996;8.238;2022-12-28T16:16:20;2.17;;;1.23;;
12966;SDS011;6548;49.996;8.238;2022-12-28T16:18:46;2.30;;;1.23;;
12966;SDS011;6548;49.996;8.238;2022-12-28T16:21:13;3.25;;;1.55;;
12966;SDS011;6548;49.996;8.238;2022-12-28T16:23:40;3.30;;;1.45;;
12966;SDS011;6548;49.996;8.238;2022-12-28T16:26:07;2.53;;;1.33;;
12966;SDS011;6548;49.996;8.238;2022-12-28T16:28:35;2.08;;;1.30;;
12966;SDS011;6548;49.996;8.238;2022-12-28T16:31:04;3.53;;;1.42;;
12966;SDS011;6548;49.996;8.238;2022-12-28T16:33:31;3.15;;;1.20;;
12966;SDS011;6548;49.996;8.238;2022-12-28T16:35:57;3.17;;;1.25;;
12966;SDS011;6548;49.996;8.238;2022-12-28T16:38:23;7.35;;;2.95;;
12966;SDS011;6548;49.996;8.238;2022-12-28T16:40:51;2.92;;;1.83;;
12966;SDS011;6548;49.996;8.238;2022-12-28T16:43:19;3.63;;;1.38;;
12966;SDS011;6548;49.996;8.238;2022-12-28T16:45:47;4.20;;;1.90;;
12966;SDS011;6548;49.996;8.238;2022-12-28T16:48:13;3.60;;;1.60;;
12966;SDS011;6548;49.996;8.238;2022-12-28T16:50:40;2.97;;;1.27;;
12966;SDS011;6548;49.996;8.238;2022-12-28T16:53:06;2.65;;;1.27;;
12966;SDS011;6548;49.996;8.238;2022-12-28T16:55:36;3.03;;;1.58;;
12966;SDS011;6548;49.996;8.238;2022-12-28T16:58:10;2.28;;;1.30;;
12966;SDS011;6548;49.996;8.238;2022-12-28T17:00:36;2.30;;;1.50;;
12966;SDS011;6548;49.996;8.238;2022-12-28T17:03:01;1.27;;;0.98;;
12966;SDS011;6548;49.996;8.238;2022-12-28T17:05:30;2.50;;;1.15;;
12966;SDS011;6548;49.996;8.238;2022-12-28T17:07:58;1.98;;;1.63;;
12966;SDS011;6548;49.996;8.238;2022-12-28T17:10:23;3.38;;;1.60;;
12966;SDS011;6548;49.996;8.238;2022-12-28T17:12:49;1.30;;;1.08;;
12966;SDS011;6548;49.996;8.238;2022-12-28T17:15:15;1.52;;;0.80;;
12966;SDS011;6548;49.996;8.238;2022-12-28T17:17:40;2.08;;;1.15;;
12966;SDS011;6548;49.996;8.238;2022-12-28T17:20:06;3.58;;;1.15;;
12966;SDS011;6548;49.996;8.238;2022-12-28T17:22:32;1.77;;;1.08;;
12966;SDS011;6548;49.996;8.238;2022-12-28T17:24:58;1.48;;;1.10;;
12966;SDS011;6548;49.996;8.238;2022-12-28T17:27:23;2.03;;;1.20;;
12966;SDS011;6548;49.996;8.238;2022-12-28T17:29:49;2.25;;;1.50;;
12966;SDS011;6548;49.996;8.238;2022-12-28T17:32:15;3.08;;;1.20;;
12966;SDS011;6548;49.996;8.238;2022-12-28T17:34:41;1.60;;;1.20;;
12966;SDS011;6548;49.996;8.238;2022-12-28T17:37:06;3.38;;;1.17;;